Startpagina
METAR-TAF:

METAR-TAF

Vliegvelden :

Julius Nyerere International Airport

Dar es Salaam, Tanzania

breedte: 06-52S, lengte: 039-12E, hoogte: 55 m

Actueel weer

Dit bericht is 1 uur en het 23 minuten geleden gemaakt, om 13:00 UTC
Wind 11 kt uit het noordnoordoosten
Temperatuur 33°C
Vochtigheid 71%
Druk 1008 hPa
Zicht 10 km of meer
Weinig wolken op 2000 ft

METAR: HTDA 261300Z 03011KT 9999 FEW020 33/27 Q1008 NOSIG

Tijdstip: 17:23 (14:23 UTC)

Verwachting

Dit bericht is 27 uur en het 23 minuten geleden gemaakt, om 11:00 UTC
Verwachting geldig van 25 om 12 UTC tot 26 om 18 UTC
Wind 10 kt uit het noordoosten
Zicht 10 km of meer
Verspreide wolken op 2600 ft

TAF: HTDA 251100Z 2512/2618 05010KT 9999 SCT026

Waarnemingen en weersverwachtingen van meer dan 4000 vliegvelden (METAR en TAF).

De beschikbare stations zijn de gele en rode punten op de kaart.

Ga met uw muis naar het station om de naam te zien.

Klik dan om waarnemingen en weersverwachtingen te zien.

kaart wijzigen: klik op de groene knoppen met een zwart kruis om in te zoomen, op de groene knop met een streepje om uit te zoomen of op de groene pijlen voor aangrenzende kaarten.


METAR-TAF: